MSC Roma — D5OB2 — position and weather

sailwx.info

Track history (hours):
 
Tides and Currents Weather Stations Pressure Air Temp Water Temp Dewpoint Dewpoint Depression Visibility Wind Speed Wind Dir Waves Ship Positions

MSC Roma

Last reported at 2018-Feb-16 12:00 UTC. Time now 2018-Feb-20 17:54 UTC.
Position N 35°12' E 020°36'.

Length 337 m; draft 11.1 m.

Type: Ship (hazmat cat A). MMSI: 636018075.

Wind from 010 at 23 knots

Barometer 1017.2 mb
Air temperature 16.5 ° C
Visibility: greater than 10.8 NM
Dewpoint 5.0 ° C
Water temperature 16.3 ° C

Date/timePositionNaut miles runAvg speedWind from/ knotsBaromVisibWave heightAir tempDewpointWater temp
2018-Feb-16 12:00N 35°12' E 020°36'30319.3 010 / 231017.210.8 16.5 5.016.3
2018-Feb-15 20:17N 36°36' E 014°36'719.6
2018-Feb-15 19:56N 36°37' E 014°28'1319.6
2018-Feb-15 19:16N 36°38' E 014°12'619.5
2018-Feb-15 18:59N 36°39' E 014°05'60519.5
2018-Feb-14 12:00N 36°54' E 001°30'32819.5 240 / 241021.1 5.4 17.0 9.414.0
2018-Feb-13 19:10N 36°01' W 005°13'320.0
2018-Feb-13 19:01N 36°01' W 005°16'1020.5
2018-Feb-13 18:31N 35°58' W 005°29'87719.8
2018-Feb-11 22:14N 37°23' W 023°36'419.7
2018-Feb-11 22:00N 37°23' W 023°42'1019.7
2018-Feb-11 21:30N 37°23' W 023°54'1019.7
2018-Feb-11 21:01N 37°23' W 024°07'1019.7
2018-Feb-11 20:30N 37°23' W 024°19'1019.8
2018-Feb-11 20:00N 37°23' W 024°32'1019.6
2018-Feb-11 19:30N 37°23' W 024°44'1019.8
2018-Feb-11 19:01N 37°23' W 024°56'1019.7
2018-Feb-11 18:31N 37°23' W 025°09'1019.5
2018-Feb-11 18:00N 37°23' W 025°21'1019.7
2018-Feb-11 17:31N 37°23' W 025°33'1019.4
2018-Feb-11 17:00N 37°23' W 025°46'1019.4
2018-Feb-11 16:31N 37°23' W 025°58'1019.7
2018-Feb-11 16:01N 37°23' W 026°10'1019.6
2018-Feb-11 15:31N 37°22' W 026°22'1019.8
2018-Feb-11 15:01N 37°22' W 026°35'1019.7
2018-Feb-11 14:31N 37°22' W 026°47'1019.6
2018-Feb-11 14:00N 37°22' W 026°60'1019.7
2018-Feb-11 13:30N 37°22' W 027°12'2956.5
2018-Feb-11 13:00N 37°18' W 027°48'1129.4 320 / 101035.4 5.4 19.513.017.8
2018-Feb-11 12:37N 37°21' W 027°34'420.0
2018-Feb-11 12:26N 37°21' W 027°39'819.6
2018-Feb-11 12:00N 37°21' W 027°49'1019.6
2018-Feb-11 11:30N 37°20' W 028°02'1019.9
2018-Feb-11 11:00N 37°20' W 028°14'1019.7
2018-Feb-11 10:30N 37°20' W 028°27'1019.7
2018-Feb-11 10:00N 37°19' W 028°39'1019.8
2018-Feb-11 09:30N 37°19' W 028°51'1019.6
2018-Feb-11 09:01N 37°18' W 029°04'1019.3
2018-Feb-11 08:30N 37°18' W 029°16'1019.3
2018-Feb-11 08:00N 37°18' W 029°28'1020.1
2018-Feb-11 07:31N 37°17' W 029°41'2520.1
2018-Feb-11 06:17N 37°16' W 030°11'4319.9
2018-Feb-11 04:06N 37°13' W 031°06'320.1
2018-Feb-11 03:56N 37°13' W 031°10'  
Track history (hours):
 
Tides and Currents Weather Stations Pressure Air Temp Water Temp Dewpoint Dewpoint Depression Visibility Wind Speed Wind Dir Waves Ship Positions

MSC Roma

Last reported at 2018-Feb-16 12:00 UTC. Time now 2018-Feb-20 17:54 UTC.
Position N 35°12' E 020°36'.

Length 337 m; draft 11.1 m.

Type: Ship (hazmat cat A). MMSI: 636018075.

Wind from 010 at 23 knots

Barometer 1017.2 mb
Air temperature 16.5 ° C
Visibility: greater than 10.8 NM
Dewpoint 5.0 ° C
Water temperature 16.3 ° C

Date/timePositionNaut miles runAvg speedWind from/ knotsBaromVisibWave heightAir tempDewpointWater temp
2018-Feb-16 12:00N 35°12' E 020°36'30319.3 010 / 231017.210.8 16.5 5.016.3
2018-Feb-15 20:17N 36°36' E 014°36'719.6
2018-Feb-15 19:56N 36°37' E 014°28'1319.6
2018-Feb-15 19:16N 36°38' E 014°12'619.5
2018-Feb-15 18:59N 36°39' E 014°05'60519.5
2018-Feb-14 12:00N 36°54' E 001°30'32819.5 240 / 241021.1 5.4 17.0 9.414.0
2018-Feb-13 19:10N 36°01' W 005°13'320.0
2018-Feb-13 19:01N 36°01' W 005°16'1020.5
2018-Feb-13 18:31N 35°58' W 005°29'87719.8
2018-Feb-11 22:14N 37°23' W 023°36'419.7
2018-Feb-11 22:00N 37°23' W 023°42'1019.7
2018-Feb-11 21:30N 37°23' W 023°54'1019.7
2018-Feb-11 21:01N 37°23' W 024°07'1019.7
2018-Feb-11 20:30N 37°23' W 024°19'1019.8
2018-Feb-11 20:00N 37°23' W 024°32'1019.6
2018-Feb-11 19:30N 37°23' W 024°44'1019.8
2018-Feb-11 19:01N 37°23' W 024°56'1019.7
2018-Feb-11 18:31N 37°23' W 025°09'1019.5
2018-Feb-11 18:00N 37°23' W 025°21'1019.7
2018-Feb-11 17:31N 37°23' W 025°33'1019.4
2018-Feb-11 17:00N 37°23' W 025°46'1019.4
2018-Feb-11 16:31N 37°23' W 025°58'1019.7
2018-Feb-11 16:01N 37°23' W 026°10'1019.6
2018-Feb-11 15:31N 37°22' W 026°22'1019.8
2018-Feb-11 15:01N 37°22' W 026°35'1019.7
2018-Feb-11 14:31N 37°22' W 026°47'1019.6
2018-Feb-11 14:00N 37°22' W 026°60'1019.7
2018-Feb-11 13:30N 37°22' W 027°12'2956.5
2018-Feb-11 13:00N 37°18' W 027°48'1129.4 320 / 101035.4 5.4 19.513.017.8
2018-Feb-11 12:37N 37°21' W 027°34'420.0
2018-Feb-11 12:26N 37°21' W 027°39'819.6
2018-Feb-11 12:00N 37°21' W 027°49'1019.6
2018-Feb-11 11:30N 37°20' W 028°02'1019.9
2018-Feb-11 11:00N 37°20' W 028°14'1019.7
2018-Feb-11 10:30N 37°20' W 028°27'1019.7
2018-Feb-11 10:00N 37°19' W 028°39'1019.8
2018-Feb-11 09:30N 37°19' W 028°51'1019.6
2018-Feb-11 09:01N 37°18' W 029°04'1019.3
2018-Feb-11 08:30N 37°18' W 029°16'1019.3
2018-Feb-11 08:00N 37°18' W 029°28'1020.1
2018-Feb-11 07:31N 37°17' W 029°41'2520.1
2018-Feb-11 06:17N 37°16' W 030°11'4319.9
2018-Feb-11 04:06N 37°13' W 031°06'320.1
2018-Feb-11 03:56N 37°13' W 031°10'  

Dump ship's entire track history